Time;durP1;ratioP1;P1;durP2;ratioP2;P2;SDS_P1;SDS_P2;PMS_P1;PMS_P2;Temp;Humidity;BMP_temperature;BMP_pressure;BME280_temperature;BME280_humidity;BME280_pressure;Samples;Min_cycle;Max_cycle;Signal;HPM_P1;HPM_P2
2021/12/28 00:01:31;;;;;;;80.93;55.40;;;;;;;7.47;88.81;98909.25;5091899;28;20619;-57
2021/12/28 00:03:58;;;;;;;79.47;53.07;;;;;;;7.51;89.36;98904.22;5091583;28;20202;-57
2021/12/28 00:06:25;;;;;;;64.07;48.43;;;;;;;7.49;89.64;98911.00;5091953;28;20299;-57
2021/12/28 00:08:52;;;;;;;75.32;58.22;;;;;;;7.57;89.52;98911.16;5090607;28;20815;-57
2021/12/28 00:11:19;;;;;;;65.67;48.40;;;;;;;7.63;89.03;98919.81;5091376;28;20288;-57
2021/12/28 00:13:46;;;;;;;64.67;47.40;;;;;;;7.67;89.00;98921.56;5091164;28;20285;-57
2021/12/28 00:16:34;;;;;;;68.87;48.33;;;;;;;7.74;88.24;98922.56;5091016;28;20206;-57
2021/12/28 00:19:02;;;;;;;70.57;48.40;;;;;;;7.76;88.20;98927.69;5090651;28;20194;-57
2021/12/28 00:21:29;;;;;;;64.60;47.53;;;;;;;7.75;87.96;98936.22;5091513;28;20281;-57
2021/12/28 00:23:58;;;;;;;69.67;47.97;;;;;;;7.73;87.49;98944.69;5091265;28;20720;-57
2021/12/28 00:26:24;;;;;;;57.10;39.87;;;;;;;7.64;88.56;98935.97;5091082;28;20184;-57
2021/12/28 00:28:51;;;;;;;58.27;40.43;;;;;;;7.57;89.48;98942.69;5091257;28;20194;-57
2021/12/28 00:31:22;;;;;;;63.77;42.63;;;;;;;7.55;90.04;98948.59;5091352;28;20335;-57
2021/12/28 00:33:49;;;;;;;62.70;43.23;;;;;;;7.55;89.75;98943.50;5091090;28;20328;-57
2021/12/28 00:36:16;;;;;;;68.13;48.87;;;;;;;7.54;90.14;98946.88;5090581;28;20436;-57
2021/12/28 00:38:43;;;;;;;63.90;44.40;;;;;;;7.59;89.35;98943.56;5091053;28;20493;-57
2021/12/28 00:41:11;;;;;;;63.17;44.57;;;;;;;7.60;89.33;98937.63;5090906;28;20251;-57
2021/12/28 00:43:39;;;;;;;59.70;42.67;;;;;;;7.50;89.66;98952.75;5090776;28;20699;-57
2021/12/28 00:46:07;;;;;;;65.83;50.63;;;;;;;7.52;90.05;98944.31;5090500;28;20455;-57
2021/12/28 00:48:37;;;;;;;69.17;48.50;;;;;;;7.36;89.48;98936.31;5090639;28;20187;-57
2021/12/28 00:51:05;;;;;;;70.30;49.33;;;;;;;7.45;89.64;98952.66;5072071;28;20321;-57
2021/12/28 00:53:33;;;;;;;63.10;48.23;;;;;;;7.44;89.65;98953.53;5070874;28;20206;-57
2021/12/28 00:56:00;;;;;;;66.40;47.57;;;;;;;7.40;89.72;98951.72;5070522;28;20197;-57
2021/12/28 00:58:28;;;;;;;71.97;49.33;;;;;;;7.43;89.88;98949.22;5070817;28;20284;-57
2021/12/28 01:00:56;;;;;;;66.67;47.30;;;;;;;7.42;89.50;98944.94;5070689;28;20246;-57
2021/12/28 01:03:24;;;;;;;71.83;52.13;;;;;;;7.41;89.70;98933.00;5070480;28;20341;-57
2021/12/28 01:05:52;;;;;;;73.10;52.87;;;;;;;7.44;89.22;98929.66;5070373;28;20684;-57
2021/12/28 01:08:19;;;;;;;70.13;50.50;;;;;;;7.43;89.12;98923.66;5070443;28;20268;-58
2021/12/28 01:10:49;;;;;;;70.77;48.80;;;;;;;7.42;88.95;98933.84;5085846;28;20193;-57
2021/12/28 01:13:16;;;;;;;65.57;45.23;;;;;;;7.42;89.30;98933.84;5089993;28;20187;-57
2021/12/28 01:15:44;;;;;;;65.53;49.33;;;;;;;7.36;89.61;98934.59;5090011;28;20696;-57
2021/12/28 01:18:12;;;;;;;68.77;51.57;;;;;;;7.27;88.79;98939.53;5070467;28;20198;-57
2021/12/28 01:20:40;;;;;;;71.97;51.13;;;;;;;7.07;89.40;98940.81;5069619;28;20194;-57
2021/12/28 01:23:08;;;;;;;70.33;50.73;;;;;;;6.85;89.99;98919.06;5075080;28;20693;-57
2021/12/28 01:25:36;;;;;;;75.63;54.72;;;;;;;7.07;90.76;98945.91;5084339;28;20434;-57
2021/12/28 01:28:04;;;;;;;78.67;55.13;;;;;;;7.10;90.85;98946.84;5076781;28;20208;-56
2021/12/28 01:30:31;;;;;;;76.73;54.30;;;;;;;7.14;90.11;98945.22;5088666;28;20551;-57
2021/12/28 01:33:00;;;;;;;79.33;56.03;;;;;;;7.13;89.65;98948.59;5088156;28;20220;-56
2021/12/28 01:35:28;;;;;;;78.30;55.60;;;;;;;7.09;89.69;98942.56;5089457;28;20668;-57
2021/12/28 01:37:56;;;;;;;90.30;60.67;;;;;;;7.03;89.30;98942.44;5089267;28;20198;-57
2021/12/28 01:40:26;;;;;;;79.73;54.37;;;;;;;7.02;89.85;98927.09;5089790;28;20277;-56
2021/12/28 01:43:11;;;;;;;92.60;60.47;;;;;;;7.06;90.25;98932.28;5090381;28;20588;-56
2021/12/28 01:45:47;;;;;;;86.13;59.30;;;;;;;7.02;89.87;98934.75;5090346;28;20275;-56
2021/12/28 01:48:18;;;;;;;77.17;55.57;;;;;;;6.97;90.04;98939.78;5090178;28;20192;-56
2021/12/28 01:50:45;;;;;;;82.83;58.30;;;;;;;6.82;89.96;98905.38;5090432;28;20200;-56
2021/12/28 01:53:14;;;;;;;89.50;58.00;;;;;;;7.05;89.45;98928.03;5090225;28;20209;-57
2021/12/28 01:55:45;;;;;;;93.85;69.97;;;;;;;7.13;89.98;98934.16;5089214;28;20439;-56
2021/12/28 01:58:12;;;;;;;90.27;59.63;;;;;;;7.22;89.19;98927.50;5090049;28;20196;-56
2021/12/28 02:00:40;;;;;;;86.80;59.00;;;;;;;7.22;88.56;98937.72;5089945;28;20186;-56
2021/12/28 02:03:09;;;;;;;85.50;57.87;;;;;;;7.17;88.56;98932.50;5090237;28;20315;-56
2021/12/28 02:05:36;;;;;;;84.03;56.47;;;;;;;7.17;88.18;98929.94;5090000;28;20191;-56
2021/12/28 02:08:03;;;;;;;78.53;54.50;;;;;;;7.19;88.53;98933.41;5090225;28;20189;-56
2021/12/28 02:10:30;;;;;;;86.77;59.10;;;;;;;7.19;88.24;98935.09;5090041;28;20190;-56
2021/12/28 02:12:58;;;;;;;83.07;56.83;;;;;;;7.18;88.62;98941.03;5090014;28;20691;-56
2021/12/28 02:15:26;;;;;;;90.23;56.80;;;;;;;7.01;88.61;98910.91;5090047;28;20278;-56
2021/12/28 02:17:53;;;;;;;76.33;54.47;;;;;;;7.17;88.81;98937.59;5090201;28;21037;-56
2021/12/28 02:20:22;;;;;;;85.83;59.03;;;;;;;7.13;88.01;98928.16;5090145;28;21112;-57
2021/12/28 02:22:49;;;;;;;91.63;59.80;;;;;;;7.12;88.48;98924.75;5089978;28;20192;-56
2021/12/28 02:25:17;;;;;;;86.97;58.70;;;;;;;7.11;87.89;98927.28;5089705;28;20328;-57
2021/12/28 02:27:44;;;;;;;85.90;58.30;;;;;;;7.08;87.64;98929.78;5090289;28;20196;-57
2021/12/28 02:30:14;;;;;;;88.23;58.10;;;;;;;7.01;88.07;98931.31;5089435;28;20199;-57
2021/12/28 02:32:42;;;;;;;84.73;59.67;;;;;;;6.94;88.43;98926.06;5089482;28;20259;-57
2021/12/28 02:35:11;;;;;;;92.70;74.07;;;;;;;6.98;88.22;98921.03;5088765;28;20481;-57
2021/12/28 02:37:40;;;;;;;87.70;63.20;;;;;;;6.99;87.75;98927.00;5089580;28;20201;-57
2021/12/28 02:40:10;;;;;;;90.87;61.37;;;;;;;6.97;87.69;98932.09;5089729;28;20752;-57
2021/12/28 02:42:37;;;;;;;84.60;58.63;;;;;;;6.88;88.71;98918.25;5093608;28;20331;-58
2021/12/28 02:45:09;;;;;;;92.25;72.43;;;;;;;6.96;88.23;98929.50;5092307;28;20444;-57
2021/12/28 02:47:37;;;;;;;87.63;61.57;;;;;;;7.01;87.79;98922.78;5093411;28;20203;-57
2021/12/28 02:50:06;;;;;;;87.70;62.50;;;;;;;6.95;88.04;98922.69;5093540;28;20374;-57
2021/12/28 02:52:36;;;;;;;89.30;61.63;;;;;;;6.91;88.15;98915.78;5093104;28;20196;-57
2021/12/28 02:55:07;;;;;;;91.23;60.10;;;;;;;6.89;88.22;98917.44;5093063;28;20194;-57
2021/12/28 02:57:34;;;;;;;81.90;57.37;;;;;;;6.88;88.70;98924.25;5079951;28;20204;-57
2021/12/28 03:00:03;;;;;;;88.70;60.90;;;;;;;6.84;88.19;98927.53;5072898;28;20197;-57
2021/12/28 03:02:30;;;;;;;83.43;58.27;;;;;;;6.82;88.87;98918.13;5072826;28;20203;-58
2021/12/28 03:04:57;;;;;;;81.30;56.70;;;;;;;6.74;88.57;98923.06;5072609;28;20232;-58
2021/12/28 03:07:24;;;;;;;82.83;57.47;;;;;;;6.64;89.07;98922.84;5072794;28;20641;-58
2021/12/28 03:09:51;;;;;;;87.13;58.97;;;;;;;6.64;88.64;98926.25;5072424;28;20209;-58
2021/12/28 03:12:19;;;;;;;87.57;59.67;;;;;;;6.54;89.18;98917.53;5071766;28;20669;-58
2021/12/28 03:14:49;;;;;;;84.77;59.70;;;;;;;6.40;89.35;98918.06;5072673;28;20571;-57
2021/12/28 03:17:16;;;;;;;91.53;60.57;;;;;;;6.35;89.43;98912.81;5072440;28;20563;-58
2021/12/28 03:19:43;;;;;;;88.17;60.57;;;;;;;6.30;89.78;98911.00;5072349;28;20293;-57
2021/12/28 03:22:10;;;;;;;91.60;63.77;;;;;;;6.23;89.82;98920.19;5072327;28;20205;-58
2021/12/28 03:24:37;;;;;;;85.97;61.43;;;;;;;6.26;90.29;98921.97;5072407;28;20225;-58
2021/12/28 03:27:04;;;;;;;94.70;64.80;;;;;;;6.27;90.13;98906.69;5072430;28;20559;-58
2021/12/28 03:29:32;;;;;;;92.90;63.00;;;;;;;6.24;90.42;98916.81;5075916;28;20193;-57
2021/12/28 03:31:59;;;;;;;87.83;61.90;;;;;;;6.13;91.15;98907.16;5092201;28;20297;-57
2021/12/28 03:34:26;;;;;;;97.87;68.40;;;;;;;6.02;91.38;98918.78;5092329;28;20186;-58
2021/12/28 03:36:53;;;;;;;99.27;66.73;;;;;;;6.04;92.93;98909.50;5089931;28;20197;-57
2021/12/28 03:39:20;;;;;;;98.10;65.90;;;;;;;6.03;93.28;98911.19;5072080;28;20290;-58
2021/12/28 03:41:47;;;;;;;105.83;68.20;;;;;;;6.04;93.24;98912.94;5072161;28;20205;-57
2021/12/28 03:44:15;;;;;;;93.10;65.87;;;;;;;6.15;92.93;98914.06;5081119;28;20218;-57
2021/12/28 03:46:43;;;;;;;97.50;66.83;;;;;;;6.26;92.40;98917.69;5092021;28;20190;-57
2021/12/28 03:49:10;;;;;;;95.70;67.13;;;;;;;6.31;91.63;98913.59;5091912;28;20198;-57
2021/12/28 03:51:37;;;;;;;87.23;58.87;;;;;;;6.36;90.93;98916.25;5092161;28;20197;-57
2021/12/28 03:54:04;;;;;;;92.80;68.38;;;;;;;6.39;91.63;98917.19;5091696;28;20432;-57
2021/12/28 03:56:31;;;;;;;84.13;60.03;;;;;;;6.28;90.93;98908.41;5091976;28;20200;-58
2021/12/28 03:58:58;;;;;;;88.13;62.33;;;;;;;6.34;90.48;98931.53;5091775;28;20276;-57
2021/12/28 04:01:26;;;;;;;91.83;61.60;;;;;;;6.26;91.37;98924.50;5091851;28;20199;-57
2021/12/28 04:03:55;;;;;;;91.93;61.37;;;;;;;6.30;91.42;98937.38;5080146;28;20274;-58
2021/12/28 04:06:23;;;;;;;94.40;64.97;;;;;;;6.34;90.99;98936.63;5071598;28;20317;-57
2021/12/28 04:08:51;;;;;;;88.07;60.40;;;;;;;6.36;90.59;98934.97;5071383;28;20196;-58
2021/12/28 04:11:27;;;;;;;89.07;59.53;;;;;;;6.18;90.78;98909.00;5090801;28;20196;-57
2021/12/28 04:13:57;;;;;;;95.37;62.67;;;;;;;6.31;90.64;98946.75;5088156;28;20279;-57
2021/12/28 04:16:24;;;;;;;87.73;60.07;;;;;;;6.29;90.02;98940.72;5090663;28;20221;-58
2021/12/28 04:18:51;;;;;;;89.57;61.30;;;;;;;6.28;89.83;98939.03;5090587;28;20196;-58
2021/12/28 04:21:20;;;;;;;95.00;67.43;;;;;;;6.25;90.30;98946.59;5088141;28;20440;-57
2021/12/28 04:23:47;;;;;;;85.13;60.03;;;;;;;6.13;90.19;98951.38;5091299;28;20304;-58
2021/12/28 04:26:15;;;;;;;81.53;59.57;;;;;;;6.10;90.00;98956.41;5091211;28;20194;-56
2021/12/28 04:28:42;;;;;;;92.17;59.90;;;;;;;6.10;90.51;98955.56;5091281;28;20223;-57
2021/12/28 04:31:10;;;;;;;89.20;62.37;;;;;;;6.06;90.42;98951.22;5091200;28;20193;-57
2021/12/28 04:33:38;;;;;;;90.47;59.83;;;;;;;6.02;90.93;98944.28;5091118;28;20226;-57
2021/12/28 04:36:10;;;;;;;84.77;56.07;;;;;;;5.92;90.84;98950.84;5091086;28;20192;-57
2021/12/28 04:38:41;;;;;;;82.80;56.30;;;;;;;5.88;90.80;98955.00;5091062;28;20280;-57
2021/12/28 04:41:10;;;;;;;91.67;56.07;;;;;;;5.85;91.03;98949.00;5070724;28;20736;-58
2021/12/28 04:43:37;;;;;;;80.57;54.73;;;;;;;5.81;92.04;98953.09;5070876;28;20199;-58
2021/12/28 04:46:04;;;;;;;77.80;53.90;;;;;;;5.64;91.84;98926.31;5086947;28;20191;-58
2021/12/28 04:48:32;;;;;;;77.83;51.97;;;;;;;5.81;92.33;98953.09;5090764;28;20197;-59
2021/12/28 04:50:59;;;;;;;50.07;37.47;;;;;;;5.96;93.00;98964.56;5090671;28;20287;-58
2021/12/28 04:53:26;;;;;;;64.23;48.23;;;;;;;5.96;93.33;98962.84;5090888;28;20276;-58
2021/12/28 04:55:55;;;;;;;70.23;49.30;;;;;;;5.98;92.75;98961.22;5090823;28;20631;-59
2021/12/28 04:58:22;;;;;;;75.13;51.20;;;;;;;5.93;92.00;98960.25;5090850;28;20201;-58
2021/12/28 05:00:50;;;;;;;85.75;61.40;;;;;;;5.96;91.53;98969.66;5089955;28;20594;-59
2021/12/28 05:03:17;;;;;;;80.00;55.67;;;;;;;5.83;91.13;98948.91;5090218;28;20690;-59
2021/12/28 05:05:48;;;;;;;77.70;56.23;;;;;;;6.01;91.32;98965.53;5090525;28;20223;-58
2021/12/28 05:08:16;;;;;;;85.97;58.87;;;;;;;6.00;90.88;98966.34;5090544;28;20232;-59
2021/12/28 05:10:44;;;;;;;96.43;71.13;;;;;;;6.03;91.48;98966.44;5090116;28;20510;-59
2021/12/28 05:13:13;;;;;;;93.83;67.10;;;;;;;6.04;90.58;98971.59;5090387;28;20198;-58
2021/12/28 05:15:42;;;;;;;94.90;61.73;;;;;;;6.02;90.69;98968.09;5090735;28;20196;-58
2021/12/28 05:18:09;;;;;;;89.97;60.90;;;;;;;6.03;91.37;98971.53;5090544;28;20188;-58
2021/12/28 05:20:36;;;;;;;80.07;55.23;;;;;;;6.01;91.04;98966.41;5090313;28;20197;-58
2021/12/28 05:23:03;;;;;;;62.37;45.87;;;;;;;6.00;91.25;98971.44;5090303;28;20193;-58
2021/12/28 05:25:30;;;;;;;59.93;41.50;;;;;;;6.04;92.08;98968.16;5090203;28;20217;-58
2021/12/28 05:27:57;;;;;;;54.80;39.87;;;;;;;6.02;92.84;98970.66;5090253;28;20195;-59
2021/12/28 05:30:26;;;;;;;53.30;39.57;;;;;;;6.03;92.58;98972.38;5090438;28;20192;-59
2021/12/28 05:32:53;;;;;;;51.70;39.33;;;;;;;6.05;92.52;98973.28;5090048;28;20231;-58
2021/12/28 05:35:20;;;;;;;49.33;36.93;;;;;;;5.89;92.85;98949.09;5090438;28;20189;-58
2021/12/28 05:37:47;;;;;;;51.70;34.80;;;;;;;6.04;93.08;98981.78;5090044;28;20199;-58
2021/12/28 05:40:14;;;;;;;47.80;36.73;;;;;;;6.01;93.64;98974.03;5089914;28;20207;-58
2021/12/28 05:42:41;;;;;;;45.83;34.47;;;;;;;6.00;93.62;98977.41;5090285;28;20280;-59
2021/12/28 05:45:09;;;;;;;45.07;33.83;;;;;;;6.02;93.04;98978.31;5090016;28;20681;-59
2021/12/28 05:47:38;;;;;;;46.67;34.80;;;;;;;6.06;93.96;98976.72;5090111;28;20191;-59
2021/12/28 05:50:06;;;;;;;46.97;35.00;;;;;;;6.08;93.46;98978.47;5090443;28;20197;-59
2021/12/28 05:52:33;;;;;;;47.83;34.80;;;;;;;6.19;93.58;98978.72;5089851;28;20195;-59
2021/12/28 05:55:00;;;;;;;47.80;34.37;;;;;;;6.26;92.61;98981.47;5089979;28;20681;-59
2021/12/28 05:57:27;;;;;;;51.00;36.30;;;;;;;6.27;92.71;98985.75;5090153;28;20197;-59
2021/12/28 05:59:54;;;;;;;49.63;33.63;;;;;;;6.37;91.56;98979.22;5090090;28;20273;-59
2021/12/28 06:02:21;;;;;;;47.17;33.27;;;;;;;6.44;92.00;98988.72;5090012;28;20201;-59
2021/12/28 06:04:49;;;;;;;42.40;29.00;;;;;;;6.46;91.39;98987.94;5090062;28;20305;-59
2021/12/28 06:07:16;;;;;;;42.57;31.50;;;;;;;6.49;92.39;98984.59;5090185;28;20295;-59
2021/12/28 06:09:43;;;;;;;44.60;33.30;;;;;;;6.59;91.81;98991.66;5089930;28;20191;-59
2021/12/28 06:12:11;;;;;;;46.33;32.80;;;;;;;6.56;91.54;98989.03;5090052;28;20195;-59
2021/12/28 06:14:38;;;;;;;44.60;33.67;;;;;;;6.62;90.85;98991.69;5089947;28;20198;-59
2021/12/28 06:17:05;;;;;;;43.07;33.97;;;;;;;6.65;90.14;98996.03;5093114;28;20628;-59
2021/12/28 06:19:32;;;;;;;44.90;35.30;;;;;;;6.66;89.90;98995.19;5093735;28;20198;-59
2021/12/28 06:22:00;;;;;;;49.27;35.57;;;;;;;6.70;90.21;98990.22;5093840;28;20285;-59
2021/12/28 06:24:27;;;;;;;46.17;35.87;;;;;;;6.73;90.07;98999.63;5092924;28;20218;-59
2021/12/28 06:26:54;;;;;;;53.57;36.33;;;;;;;6.69;89.81;99002.94;5093186;28;20639;-58
2021/12/28 06:29:21;;;;;;;46.60;35.17;;;;;;;6.70;89.14;98995.31;5092866;28;20190;-59
2021/12/28 06:31:48;;;;;;;50.33;35.53;;;;;;;6.67;89.44;99000.34;5094149;28;20200;-58
2021/12/28 06:34:15;;;;;;;48.70;33.67;;;;;;;6.58;90.30;98983.94;5092173;28;20218;-59
2021/12/28 06:36:43;;;;;;;47.53;34.37;;;;;;;6.72;90.67;99003.88;5093567;28;20288;-59
2021/12/28 06:39:12;;;;;;;49.17;35.23;;;;;;;6.68;90.33;99002.06;5092799;28;20194;-59
2021/12/28 06:41:40;;;;;;;47.50;34.47;;;;;;;6.61;90.03;99014.66;5093277;28;20743;-59
2021/12/28 06:44:07;;;;;;;50.67;35.77;;;;;;;6.60;89.76;99018.00;5095315;28;20187;-58
2021/12/28 06:46:34;;;;;;;48.77;35.97;;;;;;;6.58;90.08;99009.47;5113408;28;20191;-58
2021/12/28 06:49:01;;;;;;;46.63;32.70;;;;;;;6.59;90.47;99012.06;5093338;28;20198;-57
2021/12/28 06:51:28;;;;;;;50.90;35.07;;;;;;;6.66;90.79;99015.63;5089919;28;20572;-58
2021/12/28 06:53:55;;;;;;;44.60;33.90;;;;;;;6.90;90.65;99019.59;5097593;28;20204;-58
2021/12/28 06:56:23;;;;;;;42.50;31.30;;;;;;;7.54;90.15;99000.56;5112661;28;20203;-58
2021/12/28 06:58:50;;;;;;;43.27;31.67;;;;;;;7.96;86.60;99010.75;5113067;28;20194;-58
2021/12/28 07:01:18;;;;;;;45.50;31.83;;;;;;;8.10;84.78;99009.31;5103026;28;20585;-58
2021/12/28 07:03:45;;;;;;;48.13;34.43;;;;;;;8.22;84.05;99007.81;5092635;28;20673;-58
2021/12/28 07:06:13;;;;;;;37.17;29.90;;;;;;;8.04;83.65;98998.97;5092508;28;20221;-58
2021/12/28 07:08:40;;;;;;;40.05;32.63;;;;;;;7.85;85.09;99004.56;5091400;28;20424;-58
2021/12/28 07:11:07;;;;;;;30.57;24.47;;;;;;;7.81;86.02;99002.78;5092608;28;20202;-58
2021/12/28 07:13:35;;;;;;;30.00;22.60;;;;;;;7.97;86.54;99005.66;5092434;28;20747;-58
2021/12/28 07:16:02;;;;;;;26.93;21.43;;;;;;;7.98;85.80;98994.59;5092536;28;20736;-57
2021/12/28 07:18:29;;;;;;;33.53;24.33;;;;;;;7.92;85.76;99008.97;5092359;28;20206;-58
2021/12/28 07:20:58;;;;;;;37.60;25.63;;;;;;;7.82;86.41;99010.50;5092327;28;20273;-58
2021/12/28 07:23:25;;;;;;;25.67;20.70;;;;;;;7.82;86.56;99010.50;5072126;28;20194;-58
2021/12/28 07:25:53;;;;;;;26.33;20.73;;;;;;;7.88;86.79;99017.41;5072537;28;20226;-56
2021/12/28 07:28:20;;;;;;;25.57;20.17;;;;;;;7.95;87.16;99009.88;5090091;28;20202;-56
2021/12/28 07:30:49;;;;;;;25.03;19.40;;;;;;;7.99;87.39;98996.34;5092528;28;20198;-56
2021/12/28 07:33:16;;;;;;;30.20;22.77;;;;;;;8.12;87.22;98997.41;5091960;28;20234;-56
2021/12/28 07:35:43;;;;;;;30.08;24.67;;;;;;;8.12;87.13;98999.97;5091452;28;20432;-57
2021/12/28 07:38:10;;;;;;;31.63;25.53;;;;;;;8.20;87.10;99000.97;5092208;28;20291;-57
2021/12/28 07:40:37;;;;;;;29.37;24.67;;;;;;;8.30;86.93;98998.63;5092131;28;20605;-58
2021/12/28 07:43:04;;;;;;;30.53;24.77;;;;;;;8.38;86.48;99000.47;5091866;28;20191;-58
2021/12/28 07:45:31;;;;;;;34.90;26.57;;;;;;;8.39;86.43;98995.34;5091696;28;20659;-57
2021/12/28 07:48:00;;;;;;;36.40;27.13;;;;;;;8.53;85.52;98991.31;5091847;28;20213;-57
2021/12/28 07:50:27;;;;;;;38.70;28.97;;;;;;;8.65;84.99;98995.78;5091580;28;20193;-58
2021/12/28 07:52:55;;;;;;;33.50;25.93;;;;;;;8.63;84.84;99008.53;5091711;28;20276;-58
2021/12/28 07:55:22;;;;;;;34.80;27.73;;;;;;;8.71;84.73;99006.09;5091306;28;20194;-58
2021/12/28 07:57:49;;;;;;;34.13;27.00;;;;;;;8.80;84.49;99009.69;5091400;28;20642;-56
2021/12/28 08:00:18;;;;;;;34.50;26.23;;;;;;;8.84;84.23;98992.66;5090913;28;20527;-56
2021/12/28 08:02:46;;;;;;;32.17;24.87;;;;;;;8.96;83.51;98994.53;5110307;28;20679;-56
2021/12/28 08:05:16;;;;;;;31.97;24.27;;;;;;;9.07;83.29;98990.41;5111512;28;20224;-56
2021/12/28 08:07:43;;;;;;;33.37;24.13;;;;;;;9.02;83.18;98974.13;5111637;28;20197;-57
2021/12/28 08:10:12;;;;;;;37.93;24.30;;;;;;;9.24;83.29;98999.19;5111354;28;20222;-57
2021/12/28 08:12:39;;;;;;;25.40;19.53;;;;;;;9.22;83.71;98975.25;5111151;28;20193;-57
2021/12/28 08:15:07;;;;;;;22.90;18.00;;;;;;;9.32;83.64;98984.78;5103622;28;20625;-57
2021/12/28 08:17:34;;;;;;;27.23;19.93;;;;;;;9.40;83.37;98996.84;5090613;28;20620;-57
2021/12/28 08:20:01;;;;;;;29.57;20.17;;;;;;;9.39;83.27;99002.81;5090843;28;20191;-57
2021/12/28 08:22:29;;;;;;;28.13;20.93;;;;;;;9.49;82.95;99002.13;5089910;28;20190;-56
2021/12/28 08:24:56;;;;;;;25.20;21.47;;;;;;;9.45;82.62;98979.81;5090229;28;20190;-56
2021/12/28 08:27:23;;;;;;;26.47;21.47;;;;;;;9.52;82.31;98995.28;5090516;28;20286;-56
2021/12/28 08:29:50;;;;;;;30.60;22.17;;;;;;;9.58;82.46;98997.94;5090228;28;20194;-57
2021/12/28 08:32:17;;;;;;;32.63;24.47;;;;;;;9.52;82.62;98992.72;5090901;28;20583;-57
2021/12/28 08:34:44;;;;;;;29.77;24.23;;;;;;;9.57;83.08;98988.50;5091072;28;20277;-57
2021/12/28 08:37:12;;;;;;;31.40;25.00;;;;;;;9.61;82.96;98992.84;5090825;28;20190;-57
2021/12/28 08:39:40;;;;;;;29.07;23.37;;;;;;;9.46;83.21;98960.19;5089981;28;20198;-57
2021/12/28 08:42:08;;;;;;;29.73;23.10;;;;;;;9.67;82.77;98986.06;5090500;28;20234;-58
2021/12/28 08:44:35;;;;;;;33.00;25.27;;;;;;;9.79;83.19;98986.22;5090643;28;20213;-58
2021/12/28 08:47:03;;;;;;;32.30;24.70;;;;;;;9.85;82.60;98959.75;5090504;28;20748;-57
2021/12/28 08:49:30;;;;;;;27.77;22.37;;;;;;;10.06;81.92;98990.75;5090794;28;20273;-56
2021/12/28 08:51:57;;;;;;;30.85;25.45;;;;;;;10.14;81.92;98990.88;5089289;28;20510;-56
2021/12/28 08:54:24;;;;;;;29.13;21.80;;;;;;;10.28;81.66;98981.59;5089852;28;20191;-57
2021/12/28 08:56:52;;;;;;;23.70;19.20;;;;;;;10.41;80.82;98986.03;5089941;28;20662;-57
2021/12/28 08:59:19;;;;;;;23.77;20.50;;;;;;;10.51;80.62;98982.66;5090297;28;20221;-56
2021/12/28 09:01:49;;;;;;;29.10;21.17;;;;;;;10.63;80.43;98978.47;5090545;28;20283;-56
2021/12/28 09:04:16;;;;;;;23.97;20.47;;;;;;;10.76;79.75;98976.88;5090175;28;20666;-56
2021/12/28 09:06:45;;;;;;;22.53;19.50;;;;;;;10.84;79.55;98970.06;5089864;28;20570;-56
2021/12/28 09:09:12;;;;;;;27.90;21.33;;;;;;;10.95;79.58;98960.72;5090136;28;20194;-57
2021/12/28 09:11:39;;;;;;;27.43;22.63;;;;;;;11.07;79.63;98967.66;5089844;28;20190;-57
2021/12/28 09:14:08;;;;;;;27.87;21.97;;;;;;;11.14;79.48;98957.41;5090025;28;20535;-57
2021/12/28 09:16:35;;;;;;;26.17;21.20;;;;;;;11.10;78.61;98960.78;5089681;28;20186;-57
2021/12/28 09:19:02;;;;;;;28.45;23.90;;;;;;;11.24;78.92;98958.28;5089431;28;20936;-57
2021/12/28 09:21:28;;;;;;;28.40;21.77;;;;;;;11.42;78.06;98955.81;5089723;28;20629;-57
2021/12/28 09:23:55;;;;;;;27.43;21.97;;;;;;;11.47;76.95;98937.81;5089526;28;20711;-57
2021/12/28 09:26:22;;;;;;;27.90;23.30;;;;;;;11.56;77.06;98949.03;5089716;28;20219;-57
2021/12/28 09:28:49;;;;;;;32.40;22.97;;;;;;;11.64;77.19;98941.31;5089177;28;20195;-57
2021/12/28 09:31:17;;;;;;;29.48;25.88;;;;;;;11.77;77.08;98936.25;5088925;28;20919;-57
2021/12/28 09:33:44;;;;;;;27.50;22.63;;;;;;;11.94;76.61;98941.44;5089396;28;20226;-56
2021/12/28 09:36:14;;;;;;;23.23;19.67;;;;;;;11.98;76.09;98935.41;5089716;28;20282;-56
2021/12/28 09:38:42;;;;;;;28.17;22.50;;;;;;;11.92;76.22;98934.56;5089383;28;20197;-57
2021/12/28 09:41:09;;;;;;;29.40;23.13;;;;;;;11.92;76.45;98925.09;5089435;28;20557;-57
2021/12/28 09:43:36;;;;;;;27.20;22.10;;;;;;;12.00;76.82;98925.13;5089208;28;20273;-58
2021/12/28 09:46:04;;;;;;;31.17;24.33;;;;;;;12.06;76.75;98928.56;5089537;28;20217;-58
2021/12/28 09:48:33;;;;;;;30.33;24.13;;;;;;;12.00;76.97;98915.69;5093416;28;20201;-58
2021/12/28 09:51:00;;;;;;;31.87;25.03;;;;;;;12.03;76.90;98915.69;5092246;28;20191;-58
2021/12/28 09:53:27;;;;;;;30.97;23.87;;;;;;;12.16;76.90;98912.28;5093270;28;20644;-58
2021/12/28 09:55:55;;;;;;;29.90;24.47;;;;;;;12.27;76.43;98915.72;5093486;28;20189;-59
2021/12/28 09:58:22;;;;;;;34.37;24.67;;;;;;;12.35;76.86;98920.84;5093925;28;20222;-59
2021/12/28 10:00:49;;;;;;;32.87;24.53;;;;;;;12.41;76.22;98916.53;5093711;28;20503;-58
2021/12/28 10:03:16;;;;;;;35.97;25.43;;;;;;;12.52;75.60;98919.16;5093628;28;20281;-58
2021/12/28 10:05:45;;;;;;;38.15;30.27;;;;;;;12.55;76.12;98913.13;5092525;28;20455;-58
2021/12/28 10:08:13;;;;;;;34.83;28.07;;;;;;;12.70;75.79;98910.50;5093605;28;20179;-58
2021/12/28 10:10:42;;;;;;;30.60;24.67;;;;;;;12.79;75.42;98908.78;5093482;28;20203;-58
2021/12/28 10:13:17;;;;;;;34.63;26.03;;;;;;;12.89;74.67;98909.63;5093481;28;20301;-58
2021/12/28 10:15:46;;;;;;;30.10;24.50;;;;;;;12.98;74.35;98902.72;5093485;28;20564;-58
2021/12/28 10:18:14;;;;;;;35.37;23.80;;;;;;;12.91;74.06;98884.72;5093081;28;20194;-58
2021/12/28 10:20:44;;;;;;;26.03;21.97;;;;;;;13.07;73.74;98900.97;5092979;28;20666;-58
2021/12/28 10:23:14;;;;;;;28.30;23.33;;;;;;;13.10;73.45;98894.13;5093046;28;20282;-58
2021/12/28 10:25:44;;;;;;;28.03;22.93;;;;;;;13.17;73.04;98893.22;5092805;28;20215;-58
2021/12/28 10:28:14;;;;;;;27.37;23.03;;;;;;;13.24;72.97;98888.91;5092879;28;20202;-59
2021/12/28 10:30:43;;;;;;;28.37;22.83;;;;;;;13.27;72.93;98886.28;5093027;28;20220;-58
2021/12/28 10:33:12;;;;;;;25.47;22.10;;;;;;;13.33;72.82;98883.69;5092329;28;20287;-58
2021/12/28 10:35:42;;;;;;;26.93;21.63;;;;;;;13.37;72.50;98886.28;5093177;28;20404;-58
2021/12/28 10:38:14;;;;;;;27.83;23.03;;;;;;;13.34;71.95;98881.13;5092781;28;20199;-58
2021/12/28 10:40:43;;;;;;;26.50;22.57;;;;;;;13.20;73.02;98882.03;5092692;28;20274;-58
2021/12/28 10:43:12;;;;;;;25.83;21.87;;;;;;;13.19;73.31;98870.88;5092906;28;20281;-58
2021/12/28 10:45:42;;;;;;;29.87;22.07;;;;;;;13.18;73.32;98870.88;5092004;28;20192;-58
2021/12/28 10:48:15;;;;;;;27.30;22.10;;;;;;;13.23;73.30;98877.75;5093066;28;20194;-58
2021/12/28 10:50:47;;;;;;;27.37;22.40;;;;;;;13.29;72.99;98872.56;5092655;28;20224;-57
2021/12/28 10:53:23;;;;;;;27.23;22.03;;;;;;;13.32;72.67;98869.94;5092422;28;20287;-58
2021/12/28 10:55:54;;;;;;;25.07;20.80;;;;;;;13.34;72.22;98864.78;5091699;28;20720;-58
2021/12/28 10:58:25;;;;;;;31.27;22.83;;;;;;;13.33;72.36;98857.91;5092400;28;20692;-58
2021/12/28 11:00:53;;;;;;;28.37;21.50;;;;;;;13.36;72.60;98869.06;5091311;28;20186;-58
2021/12/28 11:03:30;;;;;;;25.50;22.63;;;;;;;13.37;72.57;98863.06;5091717;28;20285;-58
2021/12/28 11:05:58;;;;;;;27.93;21.93;;;;;;;13.39;72.35;98860.44;5091910;28;20217;-58
2021/12/28 11:08:28;;;;;;;28.03;21.23;;;;;;;13.28;72.39;98837.28;5089393;28;20194;-58
2021/12/28 11:10:58;;;;;;;30.93;22.87;;;;;;;13.42;72.02;98850.97;5092291;28;20191;-58
2021/12/28 11:13:32;;;;;;;29.63;23.57;;;;;;;13.35;72.16;98849.28;5092275;28;20621;-57
2021/12/28 11:16:00;;;;;;;28.80;25.70;;;;;;;13.34;72.34;98849.31;5090743;28;20436;-57
2021/12/28 11:18:31;;;;;;;29.97;23.47;;;;;;;13.46;72.27;98838.91;5092050;28;20679;-57
2021/12/28 11:21:00;;;;;;;29.67;23.83;;;;;;;13.35;72.62;98844.13;5091848;28;20671;-57
2021/12/28 11:23:31;;;;;;;34.83;25.70;;;;;;;13.38;72.54;98831.19;5091921;28;20283;-57
2021/12/28 11:26:04;;;;;;;29.50;23.07;;;;;;;13.40;72.64;98831.22;5092068;28;20345;-58
2021/12/28 11:28:31;;;;;;;26.63;22.50;;;;;;;13.48;72.42;98834.59;5091597;28;20319;-56